Pagrindinis puslapis
METAR-TAF:

METAR-TAF

Oro uostai :

Sogndalis, Norvegija

platuma: 61-09N, ilguma: 007-08E, Aukštis: 49 m

Dabartinis oras

Ataskaita buvo paskelbta 8 valandos ir 39 minutes, ne 20:20 UTC
Vėjas 13 kt iš Vakarų/Pietvakarių
Temperatūra 8°C
Drėgmė 81%
Slėgis 1014 hPa
Matomumas 10 km arba daugiau
Išsisklaidę debesys ne aukštis 1800 ft
Su prošvaistėmis ne aukštis 6500 ft
Liūtis kaimynystėje

METAR: ENSG 052020Z 24013KT 9999 VCSH SCT018 BKN065 08/05 Q1014 RMK WIND 3806FT 27033KT

Laikas: 06:59 (04:59 UTC)


TAF: trūkstamas

Orai ataskaitas ir orų prognozės (METAR, TAF).

turimą stotys yra geltonos ir raudonos taškus žemėlapyje.

Perkelti pele per norėdami pamatyti stoties vardą.

Tada spustelėkite, norėdami matyti oro stebėjimo ir prognozės.

Norėdami pakeisti žemėlapį: spustelėkite ant žalios mygtukų su juodo kryžiaus žemyn,; žalią mygtuką su brūkšneliu, jei norite nutolinti; arba žalių rodyklių gretimoms žemėlapius.


METAR-TAF: